LICR Airport Information

Runway Information
Runway 11 Length 5574 ft width 148 ft
Elevation 38 ft Threshold ft Heading 113
Runway 29 Length 5574 ft Width 148 ft
Elevation 43 ft Threshold ft Heading 293
Runway 15 Length 6549 ft width 148 ft
Elevation 84 ft Threshold 840 ft Heading 153
Runway 33 Length 6549 ft Width 148 ft
Elevation 34 ft Threshold 164 ft Heading 333
Airport Frequencies
Type APP Name APP Frequency 120.275 MHZ
Type TWR Name TWR Frequency 118.25 MHZ
Airport Navaids
Type VOR-DME Name Reggio Calabria Frequency 111000 KHZ
Type NDB Name Reggio Calabria Frequency 325 KHZ
Airport Weather Information & NOTAM
ADDS - METARS form results

(0726 UTC 04 December 2022)
Data provider http://aviationweather.gov/metar/data/
 
METAR text: LICR 040720Z AUTO 07003KT 9999 NCD 16/10 Q1017
Conditions at: LICR (REGGIO CALABRIA , IT) observed 0720 UTC 04 December 2022
Temperature: 16.0°C (61°F)
Dewpoint: 10.0°C (50°F) [RH = 68%]
Pressure (altimeter): 30.03 inches Hg (1017.0 mb)
Winds: from the ENE (70 degrees) at 3 MPH (3 knots; 1.5 m/s)
Visibility: 6 or more miles (10+ km)
Ceiling: at least 12,000 feet AGL
Clouds: sky clear below 12,000 feet AGL
Weather: no significant weather observed at this time

METAR text: LICR 040650Z AUTO 08003KT 9999 NCD 14/10 Q1016
Conditions at: LICR (REGGIO CALABRIA , IT) observed 0650 UTC 04 December 2022
Temperature: 14.0°C (57°F)
Dewpoint: 10.0°C (50°F) [RH = 77%]
Pressure (altimeter): 30.00 inches Hg (1016.0 mb)
Winds: from the E (80 degrees) at 3 MPH (3 knots; 1.5 m/s)
Visibility: 6 or more miles (10+ km)
Ceiling: at least 12,000 feet AGL
Clouds: sky clear below 12,000 feet AGL
Weather: no significant weather observed at this time

Forecast for: LICR (REGGIO CALABRIA , IT)
Text: TAF LICR 040500Z 0406/0506 17012KT 9999 SCT030
Forecast period: 0600 to 1000 UTC 04 December 2022
Forecast type: FROM: standard forecast or significant change
Winds: from the S (170 degrees) at 14 MPH (12 knots; 6.2 m/s)
Visibility: 6 or more miles (10+ km)
Ceiling: at least 12,000 feet AGL
Clouds: scattered clouds at 3000 feet AGL
Weather: no significant weather forecast for this period
Text: BECMG 0410/0412 VRB05KT
Forecast period: 1000 UTC 04 December 2022 to 0000 UTC 05 December 2022
Forecast type: BECOMING: Conditions expected to become as follows by 1200 UTC 04 December 2022
Winds: variable direction winds at 6 MPH (5 knots; 2.6 m/s)
Visibility: 6 or more miles (10+ km)
Ceiling: at least 12,000 feet AGL
Clouds: scattered clouds at 3000 feet AGL
Weather: no significant weather forecast for this period
Text: BECMG 0500/0502 18010KT
Forecast period: 0000 to 0600 UTC 05 December 2022
Forecast type: BECOMING: Conditions expected to become as follows by 0200 UTC 05 December 2022
Winds: from the S (180 degrees) at 12 MPH (10 knots; 5.1 m/s)
Visibility: 6 or more miles (10+ km)
Ceiling: at least 12,000 feet AGL
Clouds: scattered clouds at 3000 feet AGL
Weather: no significant weather forecast for this period